sensor_id;sensor_type;location;lat;lon;timestamp;pressure;altitude;pressure_sealevel;temperature;humidity
28310;BME280;15571;50.974;13.936;2022-10-16T00:51:52;99916.63;;;15.20;100.00
28310;BME280;15571;50.974;13.936;2022-10-16T00:54:56;99925.38;;;15.22;100.00
28310;BME280;15571;50.974;13.936;2022-10-16T00:58:03;99921.06;;;15.19;100.00
28310;BME280;15571;50.974;13.936;2022-10-16T01:01:08;99923.63;;;15.21;100.00
28310;BME280;15571;50.974;13.936;2022-10-16T01:04:11;99931.59;;;15.19;100.00
28310;BME280;15571;50.974;13.936;2022-10-16T01:07:22;99934.19;;;15.21;100.00
28310;BME280;15571;50.974;13.936;2022-10-16T01:10:41;99925.50;;;15.17;100.00
28310;BME280;15571;50.974;13.936;2022-10-16T01:13:53;99920.19;;;15.19;100.00
28310;BME280;15571;50.974;13.936;2022-10-16T01:17:00;99927.19;;;15.20;100.00
28310;BME280;15571;50.974;13.936;2022-10-16T01:20:10;99918.38;;;15.21;100.00
28310;BME280;15571;50.974;13.936;2022-10-16T01:23:28;99920.09;;;15.22;100.00
28310;BME280;15571;50.974;13.936;2022-10-16T01:30:02;99920.09;;;15.22;100.00
28310;BME280;15571;50.974;13.936;2022-10-16T01:33:11;99916.59;;;15.21;100.00
28310;BME280;15571;50.974;13.936;2022-10-16T01:36:21;99928.84;;;15.24;100.00
28310;BME280;15571;50.974;13.936;2022-10-16T01:39:30;99930.56;;;15.25;100.00
28310;BME280;15571;50.974;13.936;2022-10-16T01:42:37;99944.56;;;15.27;100.00
28310;BME280;15571;50.974;13.936;2022-10-16T01:45:44;99937.56;;;15.26;100.00
28310;BME280;15571;50.974;13.936;2022-10-16T01:48:48;99944.50;;;15.29;100.00
28310;BME280;15571;50.974;13.936;2022-10-16T01:51:55;99940.91;;;15.31;100.00
28310;BME280;15571;50.974;13.936;2022-10-16T01:55:00;99948.81;;;15.31;100.00
28310;BME280;15571;50.974;13.936;2022-10-16T01:58:07;99940.91;;;15.31;100.00
28310;BME280;15571;50.974;13.936;2022-10-16T02:01:13;99937.38;;;15.32;100.00
28310;BME280;15571;50.974;13.936;2022-10-16T02:04:21;99937.38;;;15.32;100.00
28310;BME280;15571;50.974;13.936;2022-10-16T02:07:25;99947.84;;;15.35;100.00
28310;BME280;15571;50.974;13.936;2022-10-16T02:10:29;99945.19;;;15.35;100.00
28310;BME280;15571;50.974;13.936;2022-10-16T02:13:35;99948.69;;;15.36;100.00
28310;BME280;15571;50.974;13.936;2022-10-16T02:16:47;99942.56;;;15.35;100.00
28310;BME280;15571;50.974;13.936;2022-10-16T02:19:58;99949.56;;;15.36;100.00
28310;BME280;15571;50.974;13.936;2022-10-16T02:23:04;99953.94;;;15.37;100.00
28310;BME280;15571;50.974;13.936;2022-10-16T02:26:15;99958.28;;;15.38;100.00
28310;BME280;15571;50.974;13.936;2022-10-16T02:29:24;99957.38;;;15.39;100.00
28310;BME280;15571;50.974;13.936;2022-10-16T02:32:32;99960.00;;;15.39;100.00
28310;BME280;15571;50.974;13.936;2022-10-16T02:35:38;99949.47;;;15.39;100.00
28310;BME280;15571;50.974;13.936;2022-10-16T02:38:42;99946.78;;;15.41;100.00
28310;BME280;15571;50.974;13.936;2022-10-16T02:41:47;99945.88;;;15.42;100.00
28310;BME280;15571;50.974;13.936;2022-10-16T02:44:49;99950.34;;;15.40;100.00
28310;BME280;15571;50.974;13.936;2022-10-16T02:47:53;99949.44;;;15.41;100.00
28310;BME280;15571;50.974;13.936;2022-10-16T02:50:56;99958.19;;;15.41;100.00
28310;BME280;15571;50.974;13.936;2022-10-16T02:53:59;99957.28;;;15.43;100.00
28310;BME280;15571;50.974;13.936;2022-10-16T02:57:02;99961.66;;;15.44;100.00
28310;BME280;15571;50.974;13.936;2022-10-16T03:00:06;99954.66;;;15.43;100.00
28310;BME280;15571;50.974;13.936;2022-10-16T03:03:13;99946.47;;;15.52;100.00
28310;BME280;15571;50.974;13.936;2022-10-16T03:06:16;99947.28;;;15.54;100.00
28310;BME280;15571;50.974;13.936;2022-10-16T03:09:18;99952.63;;;15.52;100.00
28310;BME280;15571;50.974;13.936;2022-10-16T03:12:23;99940.28;;;15.53;100.00
28310;BME280;15571;50.974;13.936;2022-10-16T03:15:29;99935.00;;;15.53;100.00
28310;BME280;15571;50.974;13.936;2022-10-16T03:18:33;99935.91;;;15.52;100.00
28310;BME280;15571;50.974;13.936;2022-10-16T03:21:41;99940.34;;;15.51;100.00
28310;BME280;15571;50.974;13.936;2022-10-16T03:24:44;99943.91;;;15.49;100.00
28310;BME280;15571;50.974;13.936;2022-10-16T03:27:46;99957.09;;;15.49;100.00
28310;BME280;15571;50.974;13.936;2022-10-16T03:30:49;99965.00;;;15.49;100.00
28310;BME280;15571;50.974;13.936;2022-10-16T03:33:53;99971.25;;;15.46;100.00
28310;BME280;15571;50.974;13.936;2022-10-16T03:36:56;99975.66;;;15.46;100.00
28310;BME280;15571;50.974;13.936;2022-10-16T03:39:58;99978.31;;;15.46;100.00
28310;BME280;15571;50.974;13.936;2022-10-16T03:43:01;99970.28;;;15.49;100.00
28310;BME280;15571;50.974;13.936;2022-10-16T03:46:04;99972.91;;;15.49;100.00
28310;BME280;15571;50.974;13.936;2022-10-16T03:49:08;99972.00;;;15.50;100.00
28310;BME280;15571;50.974;13.936;2022-10-16T03:52:10;99971.16;;;15.49;100.00
28310;BME280;15571;50.974;13.936;2022-10-16T03:55:13;99963.19;;;15.51;100.00
28310;BME280;15571;50.974;13.936;2022-10-16T03:58:17;99979.13;;;15.48;100.00
28310;BME280;15571;50.974;13.936;2022-10-16T04:01:20;99972.06;;;15.48;100.00
28310;BME280;15571;50.974;13.936;2022-10-16T04:04:25;99966.75;;;15.50;100.00
28310;BME280;15571;50.974;13.936;2022-10-16T04:07:27;99968.47;;;15.51;100.00
28310;BME280;15571;50.974;13.936;2022-10-16T04:10:31;99980.84;;;15.49;100.00
28310;BME280;15571;50.974;13.936;2022-10-16T04:13:33;99978.19;;;15.49;100.00
28310;BME280;15571;50.974;13.936;2022-10-16T04:16:36;99985.25;;;15.48;100.00
28310;BME280;15571;50.974;13.936;2022-10-16T04:19:40;99994.03;;;15.49;100.00
28310;BME280;15571;50.974;13.936;2022-10-16T04:22:47;99994.13;;;15.46;100.00
28310;BME280;15571;50.974;13.936;2022-10-16T04:25:51;99996.78;;;15.46;100.00
28310;BME280;15571;50.974;13.936;2022-10-16T04:28:53;100001.16;;;15.45;100.00
28310;BME280;15571;50.974;13.936;2022-10-16T04:31:56;100003.88;;;15.44;100.00
28310;BME280;15571;50.974;13.936;2022-10-16T04:35:00;100008.22;;;15.45;100.00
28310;BME280;15571;50.974;13.936;2022-10-16T04:38:03;100002.97;;;15.43;100.00
28310;BME280;15571;50.974;13.936;2022-10-16T04:41:06;99997.75;;;15.41;100.00
28310;BME280;15571;50.974;13.936;2022-10-16T04:44:12;99996.91;;;15.41;100.00
28310;BME280;15571;50.974;13.936;2022-10-16T04:47:22;100002.22;;;15.39;100.00
28310;BME280;15571;50.974;13.936;2022-10-16T04:50:29;100006.69;;;15.37;100.00
28310;BME280;15571;50.974;13.936;2022-10-16T04:53:41;100005.81;;;15.37;100.00
28310;BME280;15571;50.974;13.936;2022-10-16T04:56:43;100011.13;;;15.35;100.00
28310;BME280;15571;50.974;13.936;2022-10-16T04:59:48;100010.25;;;15.35;100.00
28310;BME280;15571;50.974;13.936;2022-10-16T05:02:53;100004.13;;;15.34;100.00
28310;BME280;15571;50.974;13.936;2022-10-16T05:05:57;100011.13;;;15.35;100.00
28310;BME280;15571;50.974;13.936;2022-10-16T05:09:03;100013.78;;;15.35;100.00
28310;BME280;15571;50.974;13.936;2022-10-16T05:12:07;100011.13;;;15.35;100.00
28310;BME280;15571;50.974;13.936;2022-10-16T05:15:13;100005.88;;;15.35;100.00
28310;BME280;15571;50.974;13.936;2022-10-16T05:18:16;100014.59;;;15.37;100.00
28310;BME280;15571;50.974;13.936;2022-10-16T05:21:20;100004.06;;;15.37;100.00
28310;BME280;15571;50.974;13.936;2022-10-16T05:24:26;100006.63;;;15.39;100.00
28310;BME280;15571;50.974;13.936;2022-10-16T05:27:28;100018.03;;;15.39;100.00
28310;BME280;15571;50.974;13.936;2022-10-16T05:30:34;100010.94;;;15.41;100.00
28310;BME280;15571;50.974;13.936;2022-10-16T05:33:39;100015.31;;;15.43;100.00
28310;BME280;15571;50.974;13.936;2022-10-16T05:36:43;100007.34;;;15.44;100.00
28310;BME280;15571;50.974;13.936;2022-10-16T05:39:48;100014.34;;;15.47;100.00
28310;BME280;15571;50.974;13.936;2022-10-16T05:42:54;100017.75;;;15.49;100.00
28310;BME280;15571;50.974;13.936;2022-10-16T05:46:00;100033.59;;;15.49;100.00
28310;BME280;15571;50.974;13.936;2022-10-16T05:49:03;100043.25;;;15.50;100.00
28310;BME280;15571;50.974;13.936;2022-10-16T05:52:07;100040.59;;;15.50;100.00
28310;BME280;15571;50.974;13.936;2022-10-16T05:55:12;100046.00;;;15.47;100.00
28310;BME280;15571;50.974;13.936;2022-10-16T05:58:17;100045.16;;;15.45;100.00
28310;BME280;15571;50.974;13.936;2022-10-16T06:01:20;100056.56;;;15.45;100.00
28310;BME280;15571;50.974;13.936;2022-10-16T06:04:24;100066.22;;;15.46;100.00
28310;BME280;15571;50.974;13.936;2022-10-16T06:07:28;100075.78;;;15.50;100.00
28310;BME280;15571;50.974;13.936;2022-10-16T06:10:31;100078.41;;;15.50;100.00
28310;BME280;15571;50.974;13.936;2022-10-16T06:13:34;100089.00;;;15.49;100.00
28310;BME280;15571;50.974;13.936;2022-10-16T06:16:39;100076.69;;;15.49;100.00
28310;BME280;15571;50.974;13.936;2022-10-16T06:19:46;100077.41;;;15.54;100.00
28310;BME280;15571;50.974;13.936;2022-10-16T06:22:50;100078.28;;;15.55;100.00
28310;BME280;15571;50.974;13.936;2022-10-16T06:25:52;100079.97;;;15.57;100.00
28310;BME280;15571;50.974;13.936;2022-10-16T06:28:55;100084.34;;;15.59;100.00
28310;BME280;15571;50.974;13.936;2022-10-16T06:31:58;100094.75;;;15.63;100.00
28310;BME280;15571;50.974;13.936;2022-10-16T06:35:00;100092.94;;;15.65;100.00
28310;BME280;15571;50.974;13.936;2022-10-16T06:38:04;100094.56;;;15.69;100.00
28310;BME280;15571;50.974;13.936;2022-10-16T06:41:12;100105.03;;;15.72;100.00
28310;BME280;15571;50.974;13.936;2022-10-16T06:44:17;100093.53;;;15.75;100.00
28310;BME280;15571;50.974;13.936;2022-10-16T06:47:20;100106.59;;;15.80;100.00
28310;BME280;15571;50.974;13.936;2022-10-16T06:50:22;100106.50;;;15.83;100.00
28310;BME280;15571;50.974;13.936;2022-10-16T06:53:29;100108.19;;;15.87;100.00
28310;BME280;15571;50.974;13.936;2022-10-16T06:56:33;100115.09;;;15.91;100.00
28310;BME280;15571;50.974;13.936;2022-10-16T06:59:36;100116.75;;;15.95;100.00
28310;BME280;15571;50.974;13.936;2022-10-16T07:02:39;100121.00;;;15.99;100.00
28310;BME280;15571;50.974;13.936;2022-10-16T07:05:42;100125.31;;;16.02;100.00
28310;BME280;15571;50.974;13.936;2022-10-16T07:08:47;100130.53;;;16.05;100.00
28310;BME280;15571;50.974;13.936;2022-10-16T07:11:50;100133.09;;;16.08;100.00
28310;BME280;15571;50.974;13.936;2022-10-16T07:14:52;100124.19;;;16.11;100.00
28310;BME280;15571;50.974;13.936;2022-10-16T07:17:59;100135.59;;;16.13;100.00
28310;BME280;15571;50.974;13.936;2022-10-16T07:21:06;100142.47;;;16.18;100.00
28310;BME280;15571;50.974;13.936;2022-10-16T07:24:15;100150.38;;;16.18;100.00
28310;BME280;15571;50.974;13.936;2022-10-16T07:27:20;100154.69;;;16.21;100.00
28310;BME280;15571;50.974;13.936;2022-10-16T07:30:25;100143.16;;;16.24;100.00
28310;BME280;15571;50.974;13.936;2022-10-16T07:33:31;100164.28;;;16.25;100.00
28310;BME280;15571;50.974;13.936;2022-10-16T07:36:34;100172.09;;;16.28;100.00
28310;BME280;15571;50.974;13.936;2022-10-16T07:39:38;100182.56;;;16.31;100.00
28310;BME280;15571;50.974;13.936;2022-10-16T07:42:40;100171.91;;;16.34;100.00
28310;BME280;15571;50.974;13.936;2022-10-16T07:45:47;100171.81;;;16.38;100.00
28310;BME280;15571;50.974;13.936;2022-10-16T07:48:56;100188.53;;;16.38;100.00
28310;BME280;15571;50.974;13.936;2022-10-16T07:51:59;100179.56;;;16.44;100.00
28310;BME280;15571;50.974;13.936;2022-10-16T07:55:03;100183.81;;;16.48;100.00
28310;BME280;15571;50.974;13.936;2022-10-16T07:58:06;100191.59;;;16.54;100.00
28310;BME280;15571;50.974;13.936;2022-10-16T08:01:10;100179.22;;;16.55;100.00
28310;BME280;15571;50.974;13.936;2022-10-16T08:04:14;100193.13;;;16.61;100.00
28310;BME280;15571;50.974;13.936;2022-10-16T08:07:17;100197.50;;;16.62;100.00
28310;BME280;15571;50.974;13.936;2022-10-16T08:10:23;100201.66;;;16.70;100.00
28310;BME280;15571;50.974;13.936;2022-10-16T08:13:26;100211.25;;;16.74;100.00
28310;BME280;15571;50.974;13.936;2022-10-16T08:16:31;100208.47;;;16.77;100.00
28310;BME280;15571;50.974;13.936;2022-10-16T08:19:36;100198.72;;;16.79;100.00
28310;BME280;15571;50.974;13.936;2022-10-16T08:22:41;100179.31;;;16.80;100.00
28310;BME280;15571;50.974;13.936;2022-10-16T08:25:45;100180.75;;;16.90;100.00
28310;BME280;15571;50.974;13.936;2022-10-16T08:28:51;100177.00;;;16.98;100.00
28310;BME280;15571;50.974;13.936;2022-10-16T08:31:54;100189.13;;;17.05;100.00
28310;BME280;15571;50.974;13.936;2022-10-16T08:34:56;100183.63;;;17.11;100.00
28310;BME280;15571;50.974;13.936;2022-10-16T08:37:58;100184.31;;;17.18;100.00
28310;BME280;15571;50.974;13.936;2022-10-16T08:41:20;100183.28;;;17.22;100.00
28310;BME280;15571;50.974;13.936;2022-10-16T08:44:59;100186.56;;;17.29;100.00
28310;BME280;15571;50.974;13.936;2022-10-16T08:48:18;100200.56;;;17.32;100.00
28310;BME280;15571;50.974;13.936;2022-10-16T08:51:24;100195.25;;;17.34;100.00
28310;BME280;15571;50.974;13.936;2022-10-16T08:54:31;100198.56;;;17.39;100.00
28310;BME280;15571;50.974;13.936;2022-10-16T08:57:42;100196.84;;;17.38;100.00
28310;BME280;15571;50.974;13.936;2022-10-16T09:00:53;100205.38;;;17.46;100.00
28310;BME280;15571;50.974;13.936;2022-10-16T09:04:14;100207.88;;;17.51;100.00
28310;BME280;15571;50.974;13.936;2022-10-16T09:07:31;100202.53;;;17.52;100.00
28310;BME280;15571;50.974;13.936;2022-10-16T09:10:44;100198.09;;;17.53;100.00
28310;BME280;15571;50.974;13.936;2022-10-16T09:14:00;100196.28;;;17.55;100.00
28310;BME280;15571;50.974;13.936;2022-10-16T09:17:20;100186.59;;;17.54;100.00
28310;BME280;15571;50.974;13.936;2022-10-16T09:20:40;100180.47;;;17.53;100.00
28310;BME280;15571;50.974;13.936;2022-10-16T09:23:46;100182.16;;;17.54;100.00
28310;BME280;15571;50.974;13.936;2022-10-16T09:26:52;100181.25;;;17.55;100.00
28310;BME280;15571;50.974;13.936;2022-10-16T09:29:58;100182.13;;;17.56;100.00
28310;BME280;15571;50.974;13.936;2022-10-16T09:33:01;100185.75;;;17.53;100.00
28310;BME280;15571;50.974;13.936;2022-10-16T09:36:05;100195.38;;;17.54;100.00
28310;BME280;15571;50.974;13.936;2022-10-16T09:39:09;100196.00;;;17.63;100.00
28310;BME280;15571;50.974;13.936;2022-10-16T09:42:17;100192.41;;;17.64;100.00
28310;BME280;15571;50.974;13.936;2022-10-16T09:45:25;100196.75;;;17.66;100.00
28310;BME280;15571;50.974;13.936;2022-10-16T09:48:31;100200.97;;;17.72;100.00
28310;BME280;15571;50.974;13.936;2022-10-16T09:51:39;100197.28;;;17.76;100.00
28310;BME280;15571;50.974;13.936;2022-10-16T09:54:49;100206.84;;;17.80;100.00
28310;BME280;15571;50.974;13.936;2022-10-16T09:57:52;100202.25;;;17.85;100.00
28310;BME280;15571;50.974;13.936;2022-10-16T10:01:00;100208.94;;;17.96;100.00
28310;BME280;15571;50.974;13.936;2022-10-16T10:04:05;100206.91;;;18.04;100.00
28310;BME280;15571;50.974;13.936;2022-10-16T10:07:17;100205.88;;;18.08;100.00
28310;BME280;15571;50.974;13.936;2022-10-16T10:10:22;100215.22;;;18.18;100.00
28310;BME280;15571;50.974;13.936;2022-10-16T10:13:25;100223.72;;;18.27;100.00
28310;BME280;15571;50.974;13.936;2022-10-16T10:16:32;100231.56;;;18.30;100.00
28310;BME280;15571;50.974;13.936;2022-10-16T10:19:39;100225.13;;;18.37;100.00
28310;BME280;15571;50.974;13.936;2022-10-16T10:22:43;100221.47;;;18.40;100.00
28310;BME280;15571;50.974;13.936;2022-10-16T10:25:55;100230.91;;;18.47;100.00
28310;BME280;15571;50.974;13.936;2022-10-16T10:29:07;100244.03;;;18.51;100.00
28310;BME280;15571;50.974;13.936;2022-10-16T10:32:32;100241.41;;;18.50;100.00
28310;BME280;15571;50.974;13.936;2022-10-16T10:35:43;100243.06;;;18.52;100.00
28310;BME280;15571;50.974;13.936;2022-10-16T10:38:49;100233.25;;;18.56;100.00
28310;BME280;15571;50.974;13.936;2022-10-16T10:42:06;100250.66;;;18.62;100.00
28310;BME280;15571;50.974;13.936;2022-10-16T10:45:18;100245.00;;;18.71;100.00
28310;BME280;15571;50.974;13.936;2022-10-16T10:48:42;100249.28;;;18.75;100.00
28310;BME280;15571;50.974;13.936;2022-10-16T10:51:58;100246.34;;;18.83;100.00
28310;BME280;15571;50.974;13.936;2022-10-16T10:55:12;100249.53;;;18.91;100.00
28310;BME280;15571;50.974;13.936;2022-10-16T10:58:40;100245.81;;;18.97;100.00
28310;BME280;15571;50.974;13.936;2022-10-16T11:01:52;100250.50;;;19.12;100.00
28310;BME280;15571;50.974;13.936;2022-10-16T11:05:21;100256.34;;;19.21;100.00
28310;BME280;15571;50.974;13.936;2022-10-16T11:08:33;100254.47;;;19.24;100.00
28310;BME280;15571;50.974;13.936;2022-10-16T11:11:49;100260.34;;;19.31;100.00
28310;BME280;15571;50.974;13.936;2022-10-16T11:15:10;100260.22;;;19.34;100.00
28310;BME280;15571;50.974;13.936;2022-10-16T11:18:19;100269.81;;;19.38;100.00
28310;BME280;15571;50.974;13.936;2022-10-16T11:21:39;100266.22;;;19.39;100.00
28310;BME280;15571;50.974;13.936;2022-10-16T11:24:47;100259.97;;;19.40;100.00
28310;BME280;15571;50.974;13.936;2022-10-16T11:28:14;100271.53;;;19.39;100.00
28310;BME280;15571;50.974;13.936;2022-10-16T11:31:32;100266.16;;;19.41;100.00
28310;BME280;15571;50.974;13.936;2022-10-16T11:34:53;100259.97;;;19.40;100.00
28310;BME280;15571;50.974;13.936;2022-10-16T11:38:12;100256.38;;;19.41;100.00
28310;BME280;15571;50.974;13.936;2022-10-16T11:41:26;100268.72;;;19.42;100.00
28310;BME280;15571;50.974;13.936;2022-10-16T11:44:38;100262.50;;;19.43;100.00
28310;BME280;15571;50.974;13.936;2022-10-16T11:47:58;100264.97;;;19.48;100.00
28310;BME280;15571;50.974;13.936;2022-10-16T11:51:16;100269.28;;;19.51;100.00
28310;BME280;15571;50.974;13.936;2022-10-16T11:54:32;100271.88;;;19.52;100.00
28310;BME280;15571;50.974;13.936;2022-10-16T11:57:44;100268.22;;;19.55;100.00
28310;BME280;15571;50.974;13.936;2022-10-16T12:00:55;100271.69;;;19.57;100.00
28310;BME280;15571;50.974;13.936;2022-10-16T12:04:11;100269.84;;;19.59;100.00
28310;BME280;15571;50.974;13.936;2022-10-16T12:07:27;100261.72;;;19.62;100.00
28310;BME280;15571;50.974;13.936;2022-10-16T12:10:53;100271.41;;;19.63;100.00
28310;BME280;15571;50.974;13.936;2022-10-16T12:14:21;100277.25;;;19.71;100.00
28310;BME280;15571;50.974;13.936;2022-10-16T12:17:34;100268.31;;;19.74;100.00
28310;BME280;15571;50.974;13.936;2022-10-16T12:20:56;100277.00;;;19.78;100.00
28310;BME280;15571;50.974;13.936;2022-10-16T15:52:26;100419.13;;;19.43;100.00
28310;BME280;15571;50.974;13.936;2022-10-16T15:55:29;100420.19;;;19.39;100.00
28310;BME280;15571;50.974;13.936;2022-10-16T15:58:33;100417.75;;;19.33;100.00
28310;BME280;15571;50.974;13.936;2022-10-16T16:01:42;100416.16;;;19.29;100.00
28310;BME280;15571;50.974;13.936;2022-10-16T16:04:44;100419.84;;;19.25;100.00
28310;BME280;15571;50.974;13.936;2022-10-16T16:07:48;100416.50;;;19.20;100.00
28310;BME280;15571;50.974;13.936;2022-10-16T16:11:01;100415.69;;;19.18;100.00
28310;BME280;15571;50.974;13.936;2022-10-16T16:14:04;100414.13;;;19.12;100.00
28310;BME280;15571;50.974;13.936;2022-10-16T16:17:09;100420.53;;;19.06;100.00
28310;BME280;15571;50.974;13.936;2022-10-16T16:20:20;100434.84;;;19.02;100.00
28310;BME280;15571;50.974;13.936;2022-10-16T16:23:47;100435.88;;;18.98;100.00
28310;BME280;15571;50.974;13.936;2022-10-16T16:26:54;100440.44;;;18.94;100.00
28310;BME280;15571;50.974;13.936;2022-10-16T16:29:59;100445.88;;;18.90;100.00
28310;BME280;15571;50.974;13.936;2022-10-16T16:33:02;100446.91;;;18.86;100.00
28310;BME280;15571;50.974;13.936;2022-10-16T16:36:06;100452.38;;;18.81;100.00
28310;BME280;15571;50.974;13.936;2022-10-16T16:39:10;100456.19;;;18.74;100.00
28310;BME280;15571;50.974;13.936;2022-10-16T16:42:12;100465.22;;;18.68;100.00
28310;BME280;15571;50.974;13.936;2022-10-16T16:45:15;100476.16;;;18.59;100.00
28310;BME280;15571;50.974;13.936;2022-10-16T16:48:17;100479.81;;;18.55;100.00
28310;BME280;15571;50.974;13.936;2022-10-16T16:51:20;100479.13;;;18.49;100.00
28310;BME280;15571;50.974;13.936;2022-10-16T16:54:24;100490.72;;;18.45;100.00
28310;BME280;15571;50.974;13.936;2022-10-16T16:57:27;100496.25;;;18.39;100.00
28310;BME280;15571;50.974;13.936;2022-10-16T17:00:30;100506.03;;;18.37;100.00
28310;BME280;15571;50.974;13.936;2022-10-16T17:03:34;100510.75;;;18.27;100.00
28310;BME280;15571;50.974;13.936;2022-10-16T17:06:37;100509.06;;;18.25;100.00
28310;BME280;15571;50.974;13.936;2022-10-16T17:09:42;100520.72;;;18.20;100.00
28310;BME280;15571;50.974;13.936;2022-10-16T17:12:55;100518.22;;;18.16;100.00
28310;BME280;15571;50.974;13.936;2022-10-16T17:16:00;100526.31;;;18.11;100.00
28310;BME280;15571;50.974;13.936;2022-10-16T17:19:10;100531.59;;;18.11;100.00
28310;BME280;15571;50.974;13.936;2022-10-16T17:22:21;100534.41;;;18.07;100.00
28310;BME280;15571;50.974;13.936;2022-10-16T17:25:31;100534.50;;;18.03;100.00
28310;BME280;15571;50.974;13.936;2022-10-16T17:28:34;100539.88;;;18.00;100.00
28310;BME280;15571;50.974;13.936;2022-10-16T17:31:37;100543.53;;;17.95;100.00
28310;BME280;15571;50.974;13.936;2022-10-16T17:34:44;100546.19;;;17.95;100.00
28310;BME280;15571;50.974;13.936;2022-10-16T17:37:46;100535.72;;;17.92;100.00
28310;BME280;15571;50.974;13.936;2022-10-16T17:40:50;100550.56;;;17.96;100.00
28310;BME280;15571;50.974;13.936;2022-10-16T17:43:53;100546.19;;;17.95;100.00
28310;BME280;15571;50.974;13.936;2022-10-16T17:46:57;100548.06;;;17.91;100.00
28310;BME280;15571;50.974;13.936;2022-10-16T17:50:00;100553.44;;;17.89;100.00
28310;BME280;15571;50.974;13.936;2022-10-16T17:53:04;100553.50;;;17.86;100.00
28310;BME280;15571;50.974;13.936;2022-10-16T17:56:12;100557.06;;;17.85;100.00
28310;BME280;15571;50.974;13.936;2022-10-16T17:59:19;100559.91;;;17.79;100.00
28310;BME280;15571;50.974;13.936;2022-10-16T18:02:23;100571.56;;;17.73;100.00
28310;BME280;15571;50.974;13.936;2022-10-16T18:05:25;100572.53;;;17.71;100.00
28310;BME280;15571;50.974;13.936;2022-10-16T18:08:28;100582.38;;;17.66;100.00
28310;BME280;15571;50.974;13.936;2022-10-16T18:11:32;100588.75;;;17.58;100.00
28310;BME280;15571;50.974;13.936;2022-10-16T20:19:58;100698.09;;;16.52;100.00
28310;BME280;15571;50.974;13.936;2022-10-16T20:23:03;100689.34;;;16.50;100.00
28310;BME280;15571;50.974;13.936;2022-10-16T20:26:07;100699.91;;;16.50;100.00
28310;BME280;15571;50.974;13.936;2022-10-16T20:29:11;100701.66;;;16.51;100.00
28310;BME280;15571;50.974;13.936;2022-10-16T20:32:53;100698.06;;;16.55;100.00
28310;BME280;15571;50.974;13.936;2022-10-16T20:36:04;100708.53;;;16.58;100.00
28310;BME280;15571;50.974;13.936;2022-10-16T20:39:22;100699.75;;;16.56;100.00
28310;BME280;15571;50.974;13.936;2022-10-16T20:42:32;100697.97;;;16.58;100.00
28310;BME280;15571;50.974;13.936;2022-10-16T20:46:04;100699.75;;;16.56;100.00
28310;BME280;15571;50.974;13.936;2022-10-16T20:49:11;100700.69;;;16.55;100.00
28310;BME280;15571;50.974;13.936;2022-10-16T20:52:18;100699.91;;;16.50;100.00
28310;BME280;15571;50.974;13.936;2022-10-16T20:55:28;100707.09;;;16.43;100.00
28310;BME280;15571;50.974;13.936;2022-10-16T20:58:32;100725.53;;;16.46;100.00
28310;BME280;15571;50.974;13.936;2022-10-16T21:01:35;100719.31;;;16.49;100.00
28310;BME280;15571;50.974;13.936;2022-10-16T21:04:38;100707.84;;;16.50;100.00
28310;BME280;15571;50.974;13.936;2022-10-16T21:07:45;100715.72;;;16.52;100.00
28310;BME280;15571;50.974;13.936;2022-10-16T21:10:51;100720.09;;;16.53;100.00
28310;BME280;15571;50.974;13.936;2022-10-16T21:13:55;100731.63;;;16.50;100.00
28310;BME280;15571;50.974;13.936;2022-10-16T21:17:03;100732.53;;;16.49;100.00
28310;BME280;15571;50.974;13.936;2022-10-16T21:20:25;100729.91;;;16.47;100.00
28310;BME280;15571;50.974;13.936;2022-10-16T21:23:34;100730.81;;;16.46;100.00
28310;BME280;15571;50.974;13.936;2022-10-16T21:26:39;100745.88;;;16.43;100.00
28310;BME280;15571;50.974;13.936;2022-10-16T21:30:10;100747.66;;;16.41;100.00
28310;BME280;15571;50.974;13.936;2022-10-16T21:33:16;100755.75;;;16.34;100.00
28310;BME280;15571;50.974;13.936;2022-10-16T21:36:20;100758.38;;;16.34;100.00
28310;BME280;15571;50.974;13.936;2022-10-16T21:39:25;100769.00;;;16.31;100.00
28310;BME280;15571;50.974;13.936;2022-10-16T21:42:28;100765.50;;;16.29;100.00
28310;BME280;15571;50.974;13.936;2022-10-16T21:45:32;100776.09;;;16.29;100.00
28310;BME280;15571;50.974;13.936;2022-10-16T21:48:38;100777.06;;;16.25;100.00
28310;BME280;15571;50.974;13.936;2022-10-16T21:52:02;100766.59;;;16.21;100.00
28310;BME280;15571;50.974;13.936;2022-10-16T21:55:16;100767.50;;;16.20;100.00
28310;BME280;15571;50.974;13.936;2022-10-16T21:58:22;100770.19;;;16.16;100.00
28310;BME280;15571;50.974;13.936;2022-10-16T22:01:28;100771.16;;;16.11;100.00
28310;BME280;15571;50.974;13.936;2022-10-16T22:04:31;100769.44;;;16.10;100.00
28310;BME280;15571;50.974;13.936;2022-10-16T22:07:36;100770.38;;;16.07;100.00
28310;BME280;15571;50.974;13.936;2022-10-16T22:10:43;100767.84;;;16.01;100.00
28310;BME280;15571;50.974;13.936;2022-10-16T22:13:50;100766.97;;;16.00;100.00
28310;BME280;15571;50.974;13.936;2022-10-16T22:16:52;100769.59;;;16.00;100.00
28310;BME280;15571;50.974;13.936;2022-10-16T22:19:58;100764.38;;;15.99;100.00
28310;BME280;15571;50.974;13.936;2022-10-16T22:23:01;100769.59;;;16.00;100.00
28310;BME280;15571;50.974;13.936;2022-10-16T22:26:09;100767.88;;;15.99;100.00